Kenova, West Virginia
Current Conditions -  °F | °C
As of 2:51 PM on Sunday 21 Dec 2014 (Local Time) from KHTS Reporting Station
Clear Clear  
Wind Chill: 39°   Ceiling: Unl
Heat Index: 42°   Visibility: 10mi
Dew Point: 28°   Wind: 5mph
Humidity: 58%   Direction: NA
Pressure: 30.19"   Gusts: NA
Location:  38.4°N, 82.58°W
Report Text: KHTS 211951Z VRB04KT 10SM CLR 06/M02 A3019 RMK AO2 SLP229 T00561022
Loading
Personal Weather Stations






























Interactive Weather Map New forecast layout! Learn more

10-Day Weather Forecast

Advertisements
Track Severe Weather on mobile